BLX weather

Belluno Airport
Belluno (BL), Veneto, Italy

Public forecast

Using degrees Celsius for public forecast. Weather courtesy of forecast.io.

METAR (pilot weather report)

Report is more than 6 hours old.

Closest report is Aviano Air Base, 16.5 nm (30.6 km) ESE. Retrieved 2019/07/20 19:55 UTC (1 day ago):

LIPA 201955Z 07002KT CAVOK 25/20 Q1018 RMK SKC VIS MIN 9999 WIND THR05 /////KT WIND THR23 /////KT A3008 BLU

TAF (pilot weather forecast)

Forecast is more than 12 hours old.

Closest forecast is Aviano Air Base, 16.5 nm (30.6 km) ESE. Retrieved 2015/11/03 12:24 UTC (4 years ago):

TAF TAF LIPA 031100Z 0312/0324 VRB03KT CAVOK